Time;durP1;ratioP1;P1;durP2;ratioP2;P2;SDS_P1;SDS_P2;PMS_P1;PMS_P2;Temp;Humidity;BMP_temperature;BMP_pressure;BME280_temperature;BME280_humidity;BME280_pressure;Samples;Min_cycle;Max_cycle;Signal;HPM_P1;HPM_P2
2022/05/27 00:01:28;;;;;;;;;;;18.50;70.70;;;;;;4814212;29;19981;-73
2022/05/27 00:03:55;;;;;;;;;;;18.50;70.70;;;;;;4830359;29;19925;-73
2022/05/27 00:06:20;;;;;;;;;;;18.50;70.70;;;;;;4845350;29;20273;-72
2022/05/27 00:08:46;;;;;;;;;;;18.50;70.50;;;;;;4845859;29;19954;-74
2022/05/27 00:11:12;;;;;;;;;;;18.50;70.60;;;;;;4829611;29;20272;-73
2022/05/27 00:13:38;;;;;;;;;;;18.50;70.50;;;;;;4829635;29;19988;-73
2022/05/27 00:16:04;;;;;;;;;;;18.50;70.70;;;;;;4829565;29;19924;-73
2022/05/27 00:18:29;;;;;;;;;;;18.40;70.50;;;;;;4829311;29;19924;-73
2022/05/27 00:20:56;;;;;;;;;;;18.50;70.60;;;;;;4844799;29;19928;-72
2022/05/27 00:23:21;;;;;;;;;;;18.40;70.50;;;;;;4829591;29;19925;-74
2022/05/27 00:25:47;;;;;;;;;;;18.50;70.40;;;;;;4829584;29;19953;-72
2022/05/27 00:28:13;;;;;;;;;;;18.40;70.40;;;;;;4829548;29;19932;-73
2022/05/27 00:30:38;;;;;;;;;;;18.40;70.40;;;;;;4829497;29;19924;-74
2022/05/27 00:33:05;;;;;;;;;;;18.40;70.40;;;;;;4830812;29;20372;-74
2022/05/27 00:35:30;;;;;;;;;;;18.40;70.50;;;;;;4827445;29;19925;-75
2022/05/27 00:37:56;;;;;;;;;;;18.40;70.40;;;;;;4811054;29;19936;-75
2022/05/27 00:40:23;;;;;;;;;;;18.40;70.50;;;;;;4810497;29;19924;-73
2022/05/27 00:42:48;;;;;;;;;;;18.40;70.40;;;;;;4812802;29;19925;-73
2022/05/27 00:45:19;;;;;;;;;;;18.40;70.30;;;;;;4823091;29;19924;-72
2022/05/27 00:47:46;;;;;;;;;;;18.40;70.30;;;;;;4829638;29;19925;-74
2022/05/27 00:50:15;;;;;;;;;;;18.40;70.20;;;;;;4845086;29;19932;-74
2022/05/27 00:52:42;;;;;;;;;;;18.40;70.30;;;;;;4829147;29;19935;-73
2022/05/27 00:55:09;;;;;;;;;;;18.40;70.20;;;;;;4829135;29;19935;-74
2022/05/27 00:57:38;;;;;;;;;;;18.40;70.20;;;;;;4829136;29;19928;-74
2022/05/27 01:00:08;;;;;;;;;;;18.40;70.30;;;;;;4844926;29;19932;-72
2022/05/27 01:02:35;;;;;;;;;;;18.40;70.20;;;;;;4829290;29;19924;-74
2022/05/27 01:05:02;;;;;;;;;;;18.40;70.30;;;;;;4845168;29;19946;-73
2022/05/27 01:07:28;;;;;;;;;;;18.40;70.10;;;;;;4828850;29;20340;-75
2022/05/27 01:09:54;;;;;;;;;;;18.40;70.10;;;;;;4828721;29;19932;-75
2022/05/27 01:12:39;;;;;;;;;;;18.40;70.00;;;;;;4824123;29;20340;-74
2022/05/27 01:15:04;;;;;;;;;;;18.40;70.10;;;;;;4810971;29;20241;-74
2022/05/27 01:17:35;;;;;;;;;;;18.30;70.10;;;;;;4826946;29;19936;-73
2022/05/27 01:20:21;;;;;;;;;;;18.30;69.80;;;;;;4811044;29;19925;-74
2022/05/27 01:22:52;;;;;;;;;;;18.30;70.10;;;;;;4827510;29;20304;-72
2022/05/27 01:25:27;;;;;;;;;;;18.30;70.00;;;;;;4826784;29;19925;-73
2022/05/27 01:28:12;;;;;;;;;;;18.30;70.10;;;;;;4826417;29;19924;-74
2022/05/27 01:30:47;;;;;;;;;;;18.30;70.20;;;;;;4810547;29;19980;-74
2022/05/27 01:33:15;;;;;;;;;;;18.30;69.90;;;;;;4829821;29;20302;-73
2022/05/27 01:35:46;;;;;;;;;;;18.30;70.00;;;;;;4829875;29;19932;-73
2022/05/27 01:38:14;;;;;;;;;;;18.30;70.00;;;;;;4814217;29;19982;-73
2022/05/27 01:41:00;;;;;;;;;;;18.20;69.90;;;;;;4813761;29;20012;-73
2022/05/27 01:43:28;;;;;;;;;;;18.20;70.00;;;;;;4813703;29;20421;-73
2022/05/27 01:45:56;;;;;;;;;;;18.20;69.70;;;;;;4829794;29;19924;-73
2022/05/27 01:48:22;;;;;;;;;;;18.20;69.90;;;;;;4814226;29;19924;-75
2022/05/27 01:51:00;;;;;;;;;;;18.20;69.90;;;;;;4813622;29;19985;-76
2022/05/27 01:53:35;;;;;;;;;;;18.20;69.70;;;;;;4829821;29;20404;-74
2022/05/27 01:56:13;;;;;;;;;;;18.20;69.70;;;;;;4814227;29;19924;-74
2022/05/27 01:58:59;;;;;;;;;;;18.20;69.40;;;;;;4813362;29;19954;-74
2022/05/27 02:01:31;;;;;;;;;;;18.20;69.70;;;;;;4800574;29;20012;-74
2022/05/27 02:04:15;;;;;;;;;;;18.20;69.70;;;;;;4814330;29;19989;-74
2022/05/27 02:06:49;;;;;;;;;;;18.20;69.80;;;;;;4813708;29;19929;-74
2022/05/27 02:09:26;;;;;;;;;;;18.10;69.40;;;;;;4829509;29;19935;-72
2022/05/27 02:11:55;;;;;;;;;;;18.10;69.30;;;;;;4829322;29;19976;-76
2022/05/27 02:14:23;;;;;;;;;;;18.00;68.80;;;;;;4829228;29;19925;-75
2022/05/27 02:16:55;;;;;;;;;;;18.10;69.40;;;;;;4829398;29;19932;-73
2022/05/27 02:19:22;;;;;;;;;;;18.00;68.80;;;;;;4829005;29;19932;-74
2022/05/27 02:21:53;;;;;;;;;;;18.00;68.70;;;;;;4813051;29;20000;-74
2022/05/27 02:24:19;;;;;;;;;;;18.00;69.30;;;;;;4829231;29;20311;-73
2022/05/27 02:26:49;;;;;;;;;;;18.10;69.20;;;;;;4813644;29;19975;-75
2022/05/27 02:29:22;;;;;;;;;;;18.00;69.40;;;;;;4813148;29;19928;-73
2022/05/27 02:31:51;;;;;;;;;;;18.00;69.00;;;;;;4818185;29;20237;-73
2022/05/27 02:37:07;;;;;;;;;;;18.00;69.40;;;;;;4847345;29;19968;-73
2022/05/27 02:39:33;;;;;;;;;;;17.90;66.00;;;;;;4841774;29;20326;-73
2022/05/27 02:42:02;;;;;;;;;;;18.00;67.70;;;;;;4828964;29;19925;-74
2022/05/27 02:44:39;;;;;;;;;;;17.90;66.80;;;;;;4812738;29;19960;-73
2022/05/27 02:47:20;;;;;;;;;;;17.80;66.70;;;;;;4813018;29;19925;-74
2022/05/27 02:49:59;;;;;;;;;;;17.80;67.70;;;;;;4812584;29;19928;-74
2022/05/27 02:52:43;;;;;;;;;;;17.80;67.20;;;;;;4829260;29;19924;-74
2022/05/27 02:55:28;;;;;;;;;;;17.70;67.40;;;;;;4812440;29;20264;-75
2022/05/27 02:57:54;;;;;;;;;;;17.70;67.70;;;;;;4804424;29;19925;-76
2022/05/27 03:00:22;;;;;;;;;;;17.70;67.60;;;;;;4778560;29;20345;-74
2022/05/27 03:02:48;;;;;;;;;;;17.70;67.70;;;;;;4803060;29;20252;-75
2022/05/27 03:05:15;;;;;;;;;;;17.60;68.00;;;;;;4828239;29;19924;-73
2022/05/27 03:07:58;;;;;;;;;;;17.60;67.90;;;;;;4827885;29;19950;-74
2022/05/27 03:10:32;;;;;;;;;;;17.60;68.30;;;;;;4828462;29;20372;-74
2022/05/27 03:13:25;;;;;;;;;;;17.60;68.30;;;;;;4811288;29;19925;-74
2022/05/27 03:16:04;;;;;;;;;;;17.60;68.10;;;;;;4767446;29;19932;-76
2022/05/27 03:18:33;;;;;;;;;;;17.60;67.90;;;;;;4809813;29;19931;-76
2022/05/27 03:21:10;;;;;;;;;;;17.60;68.20;;;;;;4809848;29;19925;-76
2022/05/27 03:24:00;;;;;;;;;;;17.60;67.90;;;;;;4794002;29;19951;-77
2022/05/27 03:26:44;;;;;;;;;;;17.60;68.30;;;;;;4813958;29;20428;-75
2022/05/27 03:29:12;;;;;;;;;;;17.60;68.50;;;;;;4809716;29;19925;-74
2022/05/27 03:31:41;;;;;;;;;;;17.60;68.40;;;;;;4816579;29;20256;-78
2022/05/27 03:34:10;;;;;;;;;;;17.60;67.80;;;;;;4810649;29;19932;-76
2022/05/27 03:36:35;;;;;;;;;;;17.60;67.60;;;;;;4826498;29;19955;-77
2022/05/27 03:39:10;;;;;;;;;;;17.60;67.70;;;;;;4826715;29;19924;-77
2022/05/27 03:41:38;;;;;;;;;;;17.60;67.40;;;;;;4811039;29;19954;-76
2022/05/27 03:44:04;;;;;;;;;;;17.50;66.10;;;;;;4824394;29;19925;-75
2022/05/27 03:46:32;;;;;;;;;;;17.50;65.90;;;;;;4809505;29;20371;-76
2022/05/27 03:48:58;;;;;;;;;;;17.50;66.10;;;;;;4809158;29;19925;-75
2022/05/27 03:51:28;;;;;;;;;;;17.40;66.40;;;;;;4790229;29;19989;-73
2022/05/27 03:54:09;;;;;;;;;;;17.50;66.30;;;;;;4809335;29;19925;-75
2022/05/27 03:56:36;;;;;;;;;;;17.40;66.10;;;;;;4823349;29;20348;-77
2022/05/27 03:59:02;;;;;;;;;;;17.40;66.80;;;;;;4793009;29;19936;-77
2022/05/27 04:01:31;;;;;;;;;;;17.40;67.30;;;;;;4793326;29;19928;-75
2022/05/27 04:03:58;;;;;;;;;;;17.40;67.00;;;;;;4813380;29;19956;-74
2022/05/27 04:06:24;;;;;;;;;;;17.50;68.10;;;;;;4811397;29;20234;-76
2022/05/27 04:08:50;;;;;;;;;;;17.60;68.00;;;;;;4817388;29;19921;-74
2022/05/27 04:11:15;;;;;;;;;;;17.60;67.60;;;;;;4809121;29;19929;-76
2022/05/27 04:13:41;;;;;;;;;;;17.60;67.20;;;;;;4809405;29;19992;-74
2022/05/27 04:16:08;;;;;;;;;;;17.60;66.60;;;;;;4815105;29;19924;-76
2022/05/27 04:18:34;;;;;;;;;;;17.60;66.10;;;;;;4819353;29;19925;-76
2022/05/27 04:20:59;;;;;;;;;;;17.60;65.80;;;;;;4819406;29;19936;-75
2022/05/27 04:23:28;;;;;;;;;;;17.60;65.20;;;;;;4816526;29;19940;-77
2022/05/27 04:25:53;;;;;;;;;;;17.50;64.90;;;;;;4796181;29;19926;-77
2022/05/27 04:28:19;;;;;;;;;;;17.50;64.80;;;;;;4813819;29;19944;-78
2022/05/27 04:30:47;;;;;;;;;;;17.50;64.60;;;;;;4801066;29;19921;-80
2022/05/27 04:33:13;;;;;;;;;;;17.50;64.30;;;;;;4826740;29;19928;-79
2022/05/27 04:35:39;;;;;;;;;;;17.50;64.20;;;;;;4820272;29;19928;-78
2022/05/27 04:38:05;;;;;;;;;;;17.50;64.20;;;;;;4820278;29;19920;-79
2022/05/27 04:40:30;;;;;;;;;;;17.50;64.10;;;;;;4818128;29;19936;-80
2022/05/27 04:42:56;;;;;;;;;;;17.50;64.40;;;;;;4833734;29;19931;-74
2022/05/27 04:45:22;;;;;;;;;;;17.50;64.70;;;;;;4844927;29;20019;-78
2022/05/27 04:47:48;;;;;;;;;;;17.60;65.00;;;;;;4819358;29;20329;-76
2022/05/27 04:50:14;;;;;;;;;;;17.70;65.10;;;;;;4810531;29;19935;-80
2022/05/27 04:52:43;;;;;;;;;;;17.70;65.00;;;;;;4826996;29;19925;-78
2022/05/27 04:55:13;;;;;;;;;;;17.80;65.40;;;;;;4837554;29;19924;-75
2022/05/27 04:57:40;;;;;;;;;;;17.80;65.40;;;;;;4810428;29;20337;-76
2022/05/27 05:00:10;;;;;;;;;;;17.80;65.60;;;;;;4826262;29;19928;-77
2022/05/27 05:02:36;;;;;;;;;;;17.80;64.60;;;;;;4825180;29;19920;-74
2022/05/27 05:05:02;;;;;;;;;;;17.80;63.70;;;;;;4817629;29;19939;-77
2022/05/27 05:07:27;;;;;;;;;;;17.80;64.50;;;;;;4827752;29;20356;-77
2022/05/27 05:09:53;;;;;;;;;;;17.80;64.70;;;;;;4840095;29;19971;-76
2022/05/27 05:12:22;;;;;;;;;;;17.80;64.20;;;;;;4827252;29;20233;-76
2022/05/27 05:14:49;;;;;;;;;;;17.90;66.50;;;;;;4810758;29;20357;-77
2022/05/27 05:17:14;;;;;;;;;;;17.90;67.40;;;;;;4826338;29;20400;-76
2022/05/27 05:19:40;;;;;;;;;;;17.90;68.10;;;;;;4841029;29;20011;-77
2022/05/27 05:22:06;;;;;;;;;;;18.00;68.10;;;;;;4814812;29;19977;-79
2022/05/27 05:24:31;;;;;;;;;;;18.10;68.30;;;;;;4829184;29;19932;-77
2022/05/27 05:26:57;;;;;;;;;;;18.10;68.10;;;;;;4828716;29;20423;-78
2022/05/27 05:29:23;;;;;;;;;;;18.10;68.30;;;;;;4828507;29;19924;-76
2022/05/27 05:31:48;;;;;;;;;;;18.10;68.50;;;;;;4844217;29;19943;-76
2022/05/27 05:34:14;;;;;;;;;;;18.10;65.10;;;;;;4828380;29;19928;-77
2022/05/27 05:36:39;;;;;;;;;;;18.10;65.30;;;;;;4844363;29;20256;-76
2022/05/27 05:39:05;;;;;;;;;;;18.10;66.10;;;;;;4844478;29;19936;-76
2022/05/27 05:41:34;;;;;;;;;;;18.10;67.00;;;;;;4844514;29;20023;-75
2022/05/27 05:44:00;;;;;;;;;;;18.10;66.60;;;;;;4834877;29;19924;-78
2022/05/27 05:46:26;;;;;;;;;;;18.10;66.60;;;;;;4816814;29;19928;-77
2022/05/27 05:48:52;;;;;;;;;;;18.20;65.60;;;;;;4827957;29;19991;-78
2022/05/27 05:51:18;;;;;;;;;;;18.20;63.10;;;;;;4823552;29;20033;-74
2022/05/27 05:53:44;;;;;;;;;;;18.10;61.90;;;;;;4825306;29;19920;-75
2022/05/27 05:56:10;;;;;;;;;;;18.10;63.60;;;;;;4825907;29;20402;-73
2022/05/27 05:58:35;;;;;;;;;;;18.00;62.50;;;;;;4825814;29;19979;-74
2022/05/27 06:01:01;;;;;;;;;;;18.00;63.10;;;;;;4825855;29;19924;-73
2022/05/27 06:03:26;;;;;;;;;;;18.00;63.70;;;;;;4810028;29;19925;-75
2022/05/27 06:05:52;;;;;;;;;;;18.00;63.60;;;;;;4826320;29;19933;-75
2022/05/27 06:08:20;;;;;;;;;;;18.00;64.00;;;;;;4826204;29;19937;-75
2022/05/27 06:10:46;;;;;;;;;;;18.10;64.10;;;;;;4826584;29;19929;-75
2022/05/27 06:13:12;;;;;;;;;;;18.10;64.10;;;;;;4825887;29;19936;-74
2022/05/27 06:15:38;;;;;;;;;;;18.10;62.90;;;;;;4810115;29;19925;-73
2022/05/27 06:18:06;;;;;;;;;;;18.10;62.40;;;;;;4827908;29;20249;-76
2022/05/27 06:20:33;;;;;;;;;;;18.20;62.30;;;;;;4823747;29;19995;-76
2022/05/27 06:23:04;;;;;;;;;;;18.20;63.60;;;;;;4836153;29;19999;-77
2022/05/27 06:25:29;;;;;;;;;;;18.20;64.00;;;;;;4827254;29;19935;-77
2022/05/27 06:34:23;;;;;;;;;;;18.20;64.80;;;;;;4815993;29;19928;-77
2022/05/27 06:36:12;;;;;;;;;;;18.40;61.50;;;;;;4812493;29;19921;-76
2022/05/27 06:38:38;;;;;;;;;;;18.50;61.50;;;;;;4812351;29;19928;-77
2022/05/27 06:41:04;;;;;;;;;;;18.50;61.40;;;;;;4839986;29;19920;-77
2022/05/27 06:43:31;;;;;;;;;;;18.50;59.80;;;;;;4831645;29;19924;-77
2022/05/27 06:45:57;;;;;;;;;;;18.40;58.10;;;;;;4825393;29;20001;-79
2022/05/27 06:48:48;;;;;;;;;;;;;;;;;;;;;
2022/05/27 06:52:04;;;;;;;;;;;18.30;58.50;;;;;;4815859;29;19925;-78
2022/05/27 06:58:21;;;;;;;;;;;18.30;59.50;;;;;;4748102;30;19925;-76
2022/05/27 07:01:17;;;;;;;;;;;18.30;58.80;;;;;;4749754;30;20274;-78
2022/05/27 07:03:53;;;;;;;;;;;18.30;59.90;;;;;;4743169;30;19928;-78
2022/05/27 07:06:23;;;;;;;;;;;18.40;60.40;;;;;;4796324;29;20032;-75
2022/05/27 07:08:48;;;;;;;;;;;18.40;58.10;;;;;;4828270;29;19983;-75
2022/05/27 07:11:14;;;;;;;;;;;18.50;56.10;;;;;;4812043;29;20380;-73
2022/05/27 07:13:39;;;;;;;;;;;18.40;57.70;;;;;;4825154;29;20005;-75
2022/05/27 07:16:05;;;;;;;;;;;18.30;58.90;;;;;;4828114;29;19939;-75
2022/05/27 07:18:31;;;;;;;;;;;18.30;59.70;;;;;;4828188;29;20393;-72
2022/05/27 07:21:01;;;;;;;;;;;18.30;59.70;;;;;;4828178;29;19931;-74
2022/05/27 07:23:26;;;;;;;;;;;18.40;60.30;;;;;;4812288;29;19924;-77
2022/05/27 07:25:52;;;;;;;;;;;18.40;60.30;;;;;;4828035;29;19988;-75
2022/05/27 07:28:17;;;;;;;;;;;18.40;60.30;;;;;;4827771;29;19935;-73
2022/05/27 07:30:43;;;;;;;;;;;18.40;60.40;;;;;;4828327;29;19925;-72
2022/05/27 07:33:09;;;;;;;;;;;18.50;60.20;;;;;;4827765;29;20299;-72
2022/05/27 07:35:34;;;;;;;;;;;18.50;58.20;;;;;;4811627;29;19989;-75
2022/05/27 07:38:00;;;;;;;;;;;18.40;57.30;;;;;;4811959;29;19964;-75
2022/05/27 07:40:25;;;;;;;;;;;18.30;57.60;;;;;;4827667;29;19936;-73
2022/05/27 07:42:51;;;;;;;;;;;18.30;57.40;;;;;;4827568;29;19932;-74
2022/05/27 07:45:17;;;;;;;;;;;18.30;58.20;;;;;;4812184;29;20020;-73
2022/05/27 07:47:43;;;;;;;;;;;18.30;58.90;;;;;;4827531;29;20344;-72
2022/05/27 07:50:11;;;;;;;;;;;18.40;59.50;;;;;;4827669;29;19931;-73
2022/05/27 07:52:37;;;;;;;;;;;18.40;59.60;;;;;;4827673;29;20015;-73
2022/05/27 07:55:03;;;;;;;;;;;18.50;59.80;;;;;;4811739;29;20016;-75
2022/05/27 07:57:29;;;;;;;;;;;18.50;60.20;;;;;;4811816;29;19936;-72
2022/05/27 07:59:54;;;;;;;;;;;18.50;60.10;;;;;;4827547;29;19929;-75
2022/05/27 08:02:21;;;;;;;;;;;18.50;60.20;;;;;;4827185;29;19952;-69
2022/05/27 08:04:46;;;;;;;;;;;18.60;60.40;;;;;;4827735;29;19989;-74
2022/05/27 08:07:12;;;;;;;;;;;18.60;60.70;;;;;;4827709;29;19925;-71
2022/05/27 08:09:38;;;;;;;;;;;18.60;60.60;;;;;;4811354;29;19931;-73
2022/05/27 08:12:03;;;;;;;;;;;18.60;60.50;;;;;;4827385;29;19924;-78
2022/05/27 08:14:29;;;;;;;;;;;18.70;59.50;;;;;;4811373;29;19933;-71
2022/05/27 08:16:55;;;;;;;;;;;18.60;59.50;;;;;;4811439;29;19937;-75
2022/05/27 08:19:20;;;;;;;;;;;18.60;59.80;;;;;;4811351;29;19994;-74
2022/05/27 08:21:46;;;;;;;;;;;18.60;60.10;;;;;;4811306;29;19932;-76
2022/05/27 08:24:11;;;;;;;;;;;18.70;60.20;;;;;;4811157;29;19924;-75
2022/05/27 08:26:40;;;;;;;;;;;18.70;58.30;;;;;;4827087;29;20307;-72
2022/05/27 08:29:06;;;;;;;;;;;18.70;58.30;;;;;;4811030;29;19929;-73
2022/05/27 08:31:32;;;;;;;;;;;18.70;57.50;;;;;;4826956;29;20385;-74
2022/05/27 08:39:31;;;;;;;;;;;18.60;59.10;;;;;;4810692;29;19925;-73
2022/05/27 08:42:15;;;;;;;;;;;18.60;59.40;;;;;;4826479;29;19932;-77
2022/05/27 08:44:47;;;;;;;;;;;18.60;59.60;;;;;;4827568;29;19935;-74
2022/05/27 08:47:12;;;;;;;;;;;18.60;59.50;;;;;;4827093;29;19976;-74
2022/05/27 08:49:40;;;;;;;;;;;18.70;59.90;;;;;;4826881;29;20335;-74
2022/05/27 08:52:05;;;;;;;;;;;18.70;59.90;;;;;;4827140;29;20276;-75
2022/05/27 08:54:37;;;;;;;;;;;18.70;60.10;;;;;;4826995;29;19932;-74
2022/05/27 08:59:51;;;;;;;;;;;18.80;59.80;;;;;;4826590;29;19924;-80
2022/05/27 09:02:35;;;;;;;;;;;18.70;58.40;;;;;;4810355;29;19932;-77
2022/05/27 09:05:14;;;;;;;;;;;18.70;58.30;;;;;;4826722;29;19953;-78
2022/05/27 09:07:52;;;;;;;;;;;18.60;58.70;;;;;;4795843;29;19924;-77
2022/05/27 09:10:20;;;;;;;;;;;18.60;58.40;;;;;;4795084;29;19954;-79
2022/05/27 09:12:49;;;;;;;;;;;18.60;59.00;;;;;;4826568;29;19924;-78
2022/05/27 09:15:33;;;;;;;;;;;18.60;59.20;;;;;;4795813;29;19947;-77
2022/05/27 09:18:14;;;;;;;;;;;18.60;59.30;;;;;;4810161;29;19950;-77
2022/05/27 09:20:53;;;;;;;;;;;18.60;59.40;;;;;;4795759;29;20023;-79
2022/05/27 09:23:30;;;;;;;;;;;18.60;59.50;;;;;;4826820;29;19924;-78
2022/05/27 09:25:56;;;;;;;;;;;18.60;59.60;;;;;;4810442;29;19925;-78
2022/05/27 09:28:21;;;;;;;;;;;18.60;59.60;;;;;;4826121;29;19989;-78
2022/05/27 09:30:48;;;;;;;;;;;18.70;59.90;;;;;;4810924;29;19985;-77
2022/05/27 09:33:15;;;;;;;;;;;18.70;60.00;;;;;;4811166;29;19925;-79
2022/05/27 09:35:42;;;;;;;;;;;18.70;60.00;;;;;;4810587;29;19991;-78
2022/05/27 09:38:10;;;;;;;;;;;18.70;60.10;;;;;;4810219;29;19932;-77
2022/05/27 09:40:41;;;;;;;;;;;18.70;60.30;;;;;;4809499;29;19929;-79
2022/05/27 09:43:25;;;;;;;;;;;18.70;60.10;;;;;;4825719;29;19936;-76
2022/05/27 09:45:57;;;;;;;;;;;18.70;60.20;;;;;;4826621;29;19924;-77
2022/05/27 09:48:22;;;;;;;;;;;18.70;60.00;;;;;;4809423;29;20307;-75
2022/05/27 09:50:49;;;;;;;;;;;18.70;59.90;;;;;;4825973;29;19977;-77
2022/05/27 09:53:19;;;;;;;;;;;18.70;60.20;;;;;;4826794;29;20233;-78
2022/05/27 09:56:04;;;;;;;;;;;18.70;60.70;;;;;;4832804;29;19932;-76
2022/05/27 09:58:33;;;;;;;;;;;18.70;60.90;;;;;;4822538;29;19920;-76
2022/05/27 10:01:00;;;;;;;;;;;18.70;60.60;;;;;;4847729;29;19988;-77
2022/05/27 10:03:36;;;;;;;;;;;18.80;61.10;;;;;;4830858;29;19920;-75
2022/05/27 10:06:04;;;;;;;;;;;18.80;61.00;;;;;;4831439;29;20348;-76
2022/05/27 10:08:35;;;;;;;;;;;18.70;61.20;;;;;;4815883;29;20367;-79
2022/05/27 10:11:13;;;;;;;;;;;18.80;61.10;;;;;;4846903;29;19925;-76
2022/05/27 10:13:41;;;;;;;;;;;18.80;61.00;;;;;;4847000;29;19924;-75
2022/05/27 10:16:11;;;;;;;;;;;18.80;60.90;;;;;;4831112;29;19935;-77
2022/05/27 10:18:39;;;;;;;;;;;18.80;60.90;;;;;;4843496;29;19935;-76
2022/05/27 10:21:24;;;;;;;;;;;18.90;61.00;;;;;;4813436;29;19932;-77
2022/05/27 10:23:54;;;;;;;;;;;18.90;61.10;;;;;;4812938;29;19924;-77
2022/05/27 10:26:20;;;;;;;;;;;18.90;61.00;;;;;;4822724;29;20268;-75
2022/05/27 10:28:55;;;;;;;;;;;18.90;61.20;;;;;;4847647;29;19924;-76
2022/05/27 10:31:20;;;;;;;;;;;18.90;60.90;;;;;;4846615;29;19924;-75
2022/05/27 10:33:47;;;;;;;;;;;18.90;61.30;;;;;;4825539;29;19924;-75
2022/05/27 10:36:31;;;;;;;;;;;18.90;61.20;;;;;;4840427;29;19980;-76
2022/05/27 10:39:04;;;;;;;;;;;18.90;61.50;;;;;;4830717;29;19925;-78
2022/05/27 10:41:42;;;;;;;;;;;18.90;61.40;;;;;;4835696;29;19925;-76
2022/05/27 10:44:14;;;;;;;;;;;18.90;61.70;;;;;;4828389;29;19925;-76
2022/05/27 10:47:00;;;;;;;;;;;18.90;61.50;;;;;;4813099;29;20276;-77
2022/05/27 10:49:43;;;;;;;;;;;18.90;61.80;;;;;;4812231;29;19989;-77
2022/05/27 10:52:11;;;;;;;;;;;18.90;62.00;;;;;;4812457;29;19921;-78
2022/05/27 10:54:44;;;;;;;;;;;18.90;62.00;;;;;;4812021;29;20332;-74
2022/05/27 11:02:52;;;;;;;;;;;19.00;61.60;;;;;;4828329;29;20004;-77
2022/05/27 11:05:19;;;;;;;;;;;19.00;60.80;;;;;;4841644;29;19921;-77
2022/05/27 11:08:01;;;;;;;;;;;18.90;60.70;;;;;;4828178;29;19928;-77
2022/05/27 11:10:37;;;;;;;;;;;18.90;60.00;;;;;;4842759;29;19963;-81
2022/05/27 11:16:24;;;;;;;;;;;18.80;59.80;;;;;;4828094;29;19933;-73
2022/05/27 11:18:54;;;;;;;;;;;18.80;59.70;;;;;;4828210;29;20364;-77
2022/05/27 11:21:37;;;;;;;;;;;18.90;59.60;;;;;;4827943;29;19960;-77
2022/05/27 11:24:24;;;;;;;;;;;18.80;59.00;;;;;;4811409;29;20462;-77
2022/05/27 11:27:03;;;;;;;;;;;18.70;59.40;;;;;;4827614;29;20359;-78
2022/05/27 11:29:43;;;;;;;;;;;18.80;59.20;;;;;;4827983;29;20003;-75
2022/05/27 11:32:22;;;;;;;;;;;18.80;59.00;;;;;;4797625;29;19925;-80
2022/05/27 11:35:00;;;;;;;;;;;18.80;59.20;;;;;;4826973;29;19920;-77
2022/05/27 11:37:26;;;;;;;;;;;18.80;59.20;;;;;;4827507;29;20007;-77
2022/05/27 11:40:16;;;;;;;;;;;18.80;59.40;;;;;;4812102;29;20004;-77
2022/05/27 11:43:07;;;;;;;;;;;18.80;59.50;;;;;;4812319;29;19989;-77
2022/05/27 11:45:34;;;;;;;;;;;18.90;59.60;;;;;;4827716;29;19924;-76
2022/05/27 11:48:04;;;;;;;;;;;18.80;59.50;;;;;;4827890;29;19939;-77
2022/05/27 11:50:47;;;;;;;;;;;18.80;59.50;;;;;;4796997;29;19932;-78
2022/05/27 11:53:28;;;;;;;;;;;18.90;59.70;;;;;;4811524;29;19924;-77
2022/05/27 11:55:59;;;;;;;;;;;18.80;59.70;;;;;;4827645;29;19924;-76
2022/05/27 11:58:45;;;;;;;;;;;18.90;59.80;;;;;;4842032;29;20001;-78
2022/05/27 12:01:37;;;;;;;;;;;18.90;59.90;;;;;;4798887;29;19948;-77
2022/05/27 12:04:06;;;;;;;;;;;18.90;60.00;;;;;;4806724;29;19935;-77
2022/05/27 12:06:34;;;;;;;;;;;18.90;60.00;;;;;;4811051;29;19977;-76
2022/05/27 12:09:21;;;;;;;;;;;18.90;60.10;;;;;;4827658;29;19988;-77
2022/05/27 12:11:56;;;;;;;;;;;18.90;60.10;;;;;;4766147;29;19932;-77
2022/05/27 12:14:38;;;;;;;;;;;18.90;60.10;;;;;;4827122;29;19969;-77
2022/05/27 12:17:22;;;;;;;;;;;18.90;60.20;;;;;;4810030;29;19925;-76
2022/05/27 12:19:57;;;;;;;;;;;18.90;60.20;;;;;;4827361;29;19920;-76
2022/05/27 12:22:33;;;;;;;;;;;18.90;60.40;;;;;;4810718;29;19931;-76
2022/05/27 12:25:07;;;;;;;;;;;18.90;60.40;;;;;;4811116;29;19920;-76
2022/05/27 12:27:36;;;;;;;;;;;19.00;60.50;;;;;;4810900;29;19921;-78
2022/05/27 12:30:05;;;;;;;;;;;19.00;60.60;;;;;;4795189;29;20070;-76
2022/05/27 12:32:31;;;;;;;;;;;19.00;60.70;;;;;;4827287;29;20029;-75
2022/05/27 12:35:25;;;;;;;;;;;19.00;60.60;;;;;;4811041;29;20002;-77
2022/05/27 12:38:06;;;;;;;;;;;19.00;60.80;;;;;;4795441;29;20280;-78
2022/05/27 12:40:46;;;;;;;;;;;18.90;60.90;;;;;;4827496;29;19925;-78
2022/05/27 12:43:31;;;;;;;;;;;19.00;60.80;;;;;;4815823;29;20007;-77
2022/05/27 12:46:05;;;;;;;;;;;19.00;60.80;;;;;;4795923;29;19963;-77
2022/05/27 12:48:55;;;;;;;;;;;19.00;60.80;;;;;;4795360;29;19981;-77
2022/05/27 12:54:48;;;;;;;;;;;19.00;60.90;;;;;;4813623;29;19963;-77
2022/05/27 13:03:42;;;;;;;;;;;18.90;60.90;;;;;;4810212;29;19921;-77
2022/05/27 13:09:32;;;;;;;;;;;19.00;61.10;;;;;;4826353;29;19925;-77
2022/05/27 13:12:01;;;;;;;;;;;19.00;61.20;;;;;;4826629;29;19920;-79
2022/05/27 13:14:39;;;;;;;;;;;19.00;61.40;;;;;;4810127;29;19921;-78
2022/05/27 13:17:09;;;;;;;;;;;19.00;61.70;;;;;;4810561;29;19927;-78
2022/05/27 13:20:07;;;;;;;;;;;19.00;61.60;;;;;;4821856;29;20000;-80
2022/05/27 13:26:31;;;;;;;;;;;19.10;61.80;;;;;;4840044;29;19923;-79
2022/05/27 13:29:36;;;;;;;;;;;;;;;;;;;;;
2022/05/27 13:36:03;;;;;;;;;;;19.00;61.30;;;;;;4779599;29;20007;-78
2022/05/27 13:38:34;;;;;;;;;;;19.00;61.30;;;;;;4738364;29;19936;-78
2022/05/27 13:41:21;;;;;;;;;;;;;;;;;;;;;
2022/05/27 13:43:51;;;;;;;;;;;19.00;61.60;;;;;;4828671;29;19921;-78
2022/05/27 13:46:25;;;;;;;;;;;19.00;61.60;;;;;;4814332;29;19920;-78
2022/05/27 17:12:29;;;;;;;;;;;19.40;57.50;;;;;;4751998;30;19937;-72
2022/05/27 17:14:55;;;;;;;;;;;19.40;57.80;;;;;;4754060;30;19930;-73
2022/05/27 17:17:20;;;;;;;;;;;19.40;58.40;;;;;;4738929;30;19995;-73
2022/05/27 17:19:46;;;;;;;;;;;19.40;58.50;;;;;;4737882;30;19937;-80
2022/05/27 17:22:12;;;;;;;;;;;19.40;59.20;;;;;;4753378;30;20017;-78
2022/05/27 17:24:44;;;;;;;;;;;19.50;59.40;;;;;;4737429;30;19922;-80
2022/05/27 17:27:09;;;;;;;;;;;19.50;59.70;;;;;;4737758;30;19922;-78
2022/05/27 17:29:36;;;;;;;;;;;19.50;59.80;;;;;;4739069;30;20021;-72
2022/05/27 17:32:02;;;;;;;;;;;19.60;60.10;;;;;;4751405;30;19937;-72
2022/05/27 17:34:33;;;;;;;;;;;19.50;60.00;;;;;;4738027;30;20019;-82
2022/05/27 17:37:17;;;;;;;;;;;19.50;60.20;;;;;;4737902;30;20409;-81
2022/05/27 17:39:43;;;;;;;;;;;19.50;60.50;;;;;;4737443;30;20394;-77
2022/05/27 17:42:08;;;;;;;;;;;19.50;61.00;;;;;;4754064;30;19930;-74
2022/05/27 17:44:34;;;;;;;;;;;19.50;60.50;;;;;;4754631;30;19922;-73
2022/05/27 17:52:28;;;;;;;;;;;19.60;60.50;;;;;;4738986;30;19926;-74
2022/05/27 17:54:54;;;;;;;;;;;19.60;60.40;;;;;;4754044;30;19926;-72
2022/05/27 17:57:23;;;;;;;;;;;19.50;60.40;;;;;;4738804;30;20234;-74
2022/05/27 17:59:52;;;;;;;;;;;19.50;60.40;;;;;;4739159;30;20004;-72
2022/05/27 18:02:18;;;;;;;;;;;19.60;60.40;;;;;;4738531;30;19976;-73
2022/05/27 18:04:44;;;;;;;;;;;19.50;60.30;;;;;;4754610;30;19926;-72
2022/05/27 18:07:09;;;;;;;;;;;19.50;60.30;;;;;;4754193;30;19937;-72
2022/05/27 18:09:35;;;;;;;;;;;19.50;59.90;;;;;;4755109;30;19930;-74
2022/05/27 18:12:00;;;;;;;;;;;19.50;60.40;;;;;;4723355;30;20266;-74
2022/05/27 18:14:26;;;;;;;;;;;19.40;60.00;;;;;;4737792;30;19992;-73
2022/05/27 18:16:52;;;;;;;;;;;19.50;59.60;;;;;;4724613;30;19927;-73
2022/05/27 18:19:18;;;;;;;;;;;19.40;59.20;;;;;;4725159;30;19926;-71
2022/05/27 18:21:43;;;;;;;;;;;19.40;59.90;;;;;;4724361;30;19953;-74
2022/05/27 18:24:09;;;;;;;;;;;19.40;59.80;;;;;;4724541;30;19927;-72
2022/05/27 18:26:34;;;;;;;;;;;19.30;60.00;;;;;;4739976;30;20250;-73
2022/05/27 18:29:00;;;;;;;;;;;19.40;60.20;;;;;;4724427;30;19934;-72
2022/05/27 18:31:26;;;;;;;;;;;19.30;59.70;;;;;;4739432;30;19999;-72
2022/05/27 18:33:51;;;;;;;;;;;19.30;60.00;;;;;;4734431;30;19933;-73
2022/05/27 18:36:17;;;;;;;;;;;19.30;59.80;;;;;;4721301;30;19927;-71
2022/05/27 18:38:42;;;;;;;;;;;19.30;59.90;;;;;;4721511;30;19930;-72
2022/05/27 18:41:08;;;;;;;;;;;19.30;59.80;;;;;;4738770;30;19949;-72
2022/05/27 18:43:33;;;;;;;;;;;19.30;60.30;;;;;;4739077;30;20005;-73
2022/05/27 18:45:59;;;;;;;;;;;19.30;60.30;;;;;;4738801;30;19926;-73
2022/05/27 18:48:25;;;;;;;;;;;19.30;60.70;;;;;;4723947;30;20250;-72
2022/05/27 18:50:51;;;;;;;;;;;19.30;60.70;;;;;;4739233;30;19926;-72
2022/05/27 18:53:17;;;;;;;;;;;19.30;60.60;;;;;;4723693;30;19985;-74
2022/05/27 18:55:43;;;;;;;;;;;19.30;61.10;;;;;;4739260;30;19926;-72
2022/05/27 18:58:10;;;;;;;;;;;19.30;58.70;;;;;;4724170;30;20335;-71
2022/05/27 19:00:37;;;;;;;;;;;19.00;57.00;;;;;;4739047;30;20357;-72